x

La Perouse Bank (46206) Wave Buoy

6:00am - Tue 21st Nov 2017 All times are PST. -8 hours from GMT.

  • Sig Wave height 7.9ft
  • Peak Period 10s
  • Wind
    31mph, 38mph gusts
  • Sea Temp 51°f
  • Air Temp 47°f
  • Sea Pressure 1009.5mb
  • La Perouse Bank
  • La Perouse Bank

More Historic Weather Station data

Upgrade to MSW Pro to gain access to the past 30 days of data for over 8000 Wavebouys and Weather Stations around the globe.

Join

Comparision Forecast

View Surf forecast
   
Tue 11/21 6:00am 8ft 10s 31 38 mph 1009.5mb 51f 47f
5:00am 8ft 10s 29 36 mph 1010.9mb 51f 48f
4:00am 7.5ft 9s 27 34 mph 1011.4mb 51f 49f
3:00am 7ft 10s 25 29 mph 1013.1mb 51f 49f
2:00am 8ft 10s 25 29 mph 1013.1mb 51f 49f
1:00am 8ft 10s 25 29 mph 1013.5mb 51f 48f
12:00am 7ft 10s 25 29 mph 1013.9mb 51f 48f
Mon 11/20 11:00pm 8ft 10s 22 29 mph 1014.7mb 52f 48f
10:00pm 8ft 10s 20 25 mph 1015.3mb 52f 48f
9:00pm 8ft 10s 18 20 mph 1015.7mb 52f 48f
8:00pm 9ft 10s 9 13 mph 1015.6mb 51f 50f
7:00pm 10ft 10s 9 11 mph 1015mb 51f 49f
6:00pm 9.5ft 11s 7 9 mph 1013.9mb 51f 49f
5:00pm 10ft 10s 4 7 mph 1013mb 51f 49f
4:00pm 10ft 11s 4 7 mph 1011.9mb 51f 49f
3:00pm 11ft 11s 7 11 mph 1010.6mb 51f 49f
2:00pm 11ft 11s 4 16 mph 1010.6mb 52f 49f
1:00pm 11ft 11s 7 9 mph 1009.7mb 52f 48f
12:00pm 12ft 12s 9 13 mph 1008.4mb 52f 49f
11:00am 11.5ft 11s 13 18 mph 1007.8mb 52f 49f
10:00am 11ft 12s 13 18 mph 1005.9mb 51f 48f
9:00am 12ft 10s 16 20 mph 1004.6mb 51f 48f
8:00am 11ft 10s 16 20 mph 1002.9mb 51f 48f
7:00am 12ft 12s 18 22 mph 1002.1mb 51f 48f
6:00am 12ft 11s 20 25 mph 1001.6mb 51f 48f
5:00am 11.5ft 10s 20 25 mph 1001.2mb 51f 48f
4:00am 12ft 10s 18 22 mph 1000.5mb 51f 48f
3:00am 12ft 11s 16 22 mph 1000.4mb 51f 48f
2:00am 12ft 9s 16 20 mph 1000.4mb 51f 48f
1:00am 11.5ft 10s 16 20 mph 999.8mb 51f 48f
12:00am 11.5ft 9s 16 18 mph 999.8mb 51f 49f
Sun 11/19 11:00pm 12ft 10s 13 18 mph 999.6mb 51f 49f
10:00pm 12ft 10s 13 18 mph 999.6mb 51f 49f
9:00pm 12.5ft 10s 7 11 mph 999.2mb 51f 49f
8:00pm 14ft 11s 13 18 mph 999mb 51f 47f
7:00pm 14ft 10s 7 11 mph 999mb 51f 49f
6:00pm 15ft 10s 4 7 mph 998.7mb 51f 49f
5:00pm 15ft 10s 2 4 mph 998.7mb 51f 49f
4:00pm 14ft 11s 4 9 mph 999.2mb 51f 49f
3:00pm 14ft 10s 9 13 mph 999.3mb 51f 48f
2:00pm 14.5ft 11s 11 16 mph 999.6mb 51f 50f
1:00pm 15ft 9s 11 13 mph 999.9mb 51f 50f
12:00pm 15ft 10s 11 13 mph 1000.6mb 51f 50f
11:00am 15ft 11s 9 11 mph 1001.4mb 51f 50f
10:00am 15.5ft 10s 4 9 mph 1002.1mb 51f 50f
9:00am 17ft 10s 9 16 mph 1002.6mb 51f 50f
8:00am 17ft 8s 31 38 mph 1002mb 51f 52f
7:00am 15ft 10s 31 38 mph 1002.9mb 51f 52f
6:00am 15.5ft 11s 31 36 mph 1004mb 51f 52f
5:00am 14.5ft 8s 29 36 mph 1005.3mb 51f 52f
4:00am 14ft 10s 31 38 mph 1006.1mb 51f 52f
3:00am 13ft 9s 31 38 mph 1007.3mb 51f 52f
2:00am 12.5ft 9s 29 36 mph 1008.8mb 51f 52f
1:00am 13ft 9s 29 34 mph 1009.8mb 51f 52f
12:00am 12ft 8s 31 38 mph 1010.4mb 51f 52f
Sat 11/18 11:00pm 11.5ft 8s 31 36 mph 1011.1mb 51f 52f
10:00pm 11.5ft 8s 27 34 mph 1011.9mb 52f 51f
9:00pm 12ft 7s 29 34 mph 1012.9mb 52f 52f
8:00pm 11ft 8s 27 34 mph 1013.7mb 52f 52f
7:00pm 11ft 7s 25 31 mph 1014.4mb 52f 52f
6:00pm 10.5ft 7s 22 27 mph 1015.2mb 52f 52f
5:00pm 10.5ft 9s 22 27 mph 1015.7mb 52f 51f
4:00pm 10ft 9s 25 31 mph 1016mb 52f 51f
3:00pm 9ft 9s 22 29 mph 1016.6mb 52f 52f
2:00pm 8ft 8s 20 25 mph 1017.4mb 51f 52f
1:00pm 7ft 8s 20 25 mph 1017.9mb 52f 52f
12:00pm 7ft 8s 20 25 mph 1018.8mb 52f 51f
11:00am 7ft 8s 20 25 mph 1019.3mb 52f 51f
10:00am 6.5ft 8s 20 25 mph 1019.7mb 51f 51f
9:00am 6ft 7s 20 25 mph 1020.2mb 51f 51f
8:00am 6ft 7s 18 20 mph 1020.5mb 52f 51f
7:00am 6ft 7s 18 20 mph 1020.8mb 52f 51f
6:00am 5.5ft 7s 18 22 mph 1020.7mb 52f 51f
5:00am 5.5ft 8s 18 22 mph 1021.2mb 52f 51f
4:00am 5.5ft 8s 18 20 mph 1021.6mb 52f 50f
3:00am 5.5ft 7s 18 22 mph 1021.8mb 52f 50f
2:00am 5ft 8s 18 20 mph 1022mb 51f 50f
1:00am 5ft 8s 18 20 mph 1021.9mb 51f 51f
12:00am 4.5ft 7s 18 20 mph 1022mb 51f 50f
Fri 11/17 11:00pm 4ft 8s 18 22 mph 1022.1mb 51f 50f
10:00pm 4.5ft 9s 13 18 mph 1022.3mb 52f 49f
9:00pm 4.5ft 8s 16 20 mph 1021.8mb 51f 50f
8:00pm 4.5ft 8s 18 22 mph 1021.5mb 51f 49f
7:00pm 5ft 9s 16 20 mph 1021.6mb 51f 49f
6:00pm 5ft 8s 7 9 mph 1021.6mb 51f 47f
5:00pm 5ft 8s 9 13 mph 1021.2mb 51f 49f
4:00pm 5.5ft 8s 7 9 mph 1020.8mb 51f 49f